sensor_id;sensor_type;location;lat;lon;timestamp;pressure;altitude;pressure_sealevel;temperature;humidity
79006;BME280;69202;45.498;-73.582;2023-08-21T00:01:15;100783.00;;;25.10;53.75
79006;BME280;69202;45.498;-73.582;2023-08-21T00:03:42;100750.56;;;24.92;54.77
79006;BME280;69202;45.498;-73.582;2023-08-21T00:06:08;100660.50;;;24.28;54.46
79006;BME280;69202;45.498;-73.582;2023-08-21T00:08:34;100741.28;;;24.77;53.43
79006;BME280;69202;45.498;-73.582;2023-08-21T00:11:00;100667.72;;;24.29;54.08
79006;BME280;69202;45.498;-73.582;2023-08-21T00:13:26;100602.75;;;24.02;54.44
79006;BME280;69202;45.498;-73.582;2023-08-21T00:15:52;100644.75;;;24.33;54.62
79006;BME280;69202;45.498;-73.582;2023-08-21T00:18:19;100561.22;;;23.88;54.68
79006;BME280;69202;45.498;-73.582;2023-08-21T00:20:45;100772.22;;;25.09;54.71
79006;BME280;69202;45.498;-73.582;2023-08-21T00:23:11;100668.97;;;24.41;54.65
79006;BME280;69202;45.498;-73.582;2023-08-21T00:25:37;100579.47;;;23.84;54.37
79006;BME280;69202;45.498;-73.582;2023-08-21T00:28:03;100785.50;;;25.12;54.30
79006;BME280;69202;45.498;-73.582;2023-08-21T00:30:29;100564.38;;;23.77;54.03
79006;BME280;69202;45.498;-73.582;2023-08-21T00:32:55;100657.75;;;24.28;54.03
79006;BME280;69202;45.498;-73.582;2023-08-21T00:35:21;100806.50;;;25.13;54.17
79006;BME280;69202;45.498;-73.582;2023-08-21T00:37:47;100805.44;;;25.09;54.35
79006;BME280;69202;45.498;-73.582;2023-08-21T00:40:12;100552.78;;;23.41;53.99
79006;BME280;69202;45.498;-73.582;2023-08-21T00:42:39;100690.78;;;24.14;54.14
79006;BME280;69202;45.498;-73.582;2023-08-21T00:45:05;100757.34;;;24.75;54.33
79006;BME280;69202;45.498;-73.582;2023-08-21T00:47:35;100587.06;;;23.69;54.30
79006;BME280;69202;45.498;-73.582;2023-08-21T00:50:01;100629.38;;;23.93;54.42
79006;BME280;69202;45.498;-73.582;2023-08-21T00:52:27;100824.34;;;25.01;54.28
79006;BME280;69202;45.498;-73.582;2023-08-21T00:54:54;100805.63;;;24.88;54.22
79006;BME280;69202;45.498;-73.582;2023-08-21T00:57:21;100754.06;;;24.50;53.84
79006;BME280;69202;45.498;-73.582;2023-08-21T00:59:48;100496.41;;;22.79;52.59
79006;BME280;69202;45.498;-73.582;2023-08-21T01:02:14;100491.09;;;22.92;52.43
79006;BME280;69202;45.498;-73.582;2023-08-21T01:04:40;100818.09;;;24.86;52.60
79006;BME280;69202;45.498;-73.582;2023-08-21T01:07:06;100563.44;;;23.18;52.72
79006;BME280;69202;45.498;-73.582;2023-08-21T01:09:58;100757.28;;;24.23;53.17
79006;BME280;69202;45.498;-73.582;2023-08-21T01:12:56;100709.16;;;24.00;53.21
79006;BME280;69202;45.498;-73.582;2023-08-21T01:15:25;100835.03;;;24.79;53.80
79006;BME280;69202;45.498;-73.582;2023-08-21T01:17:53;100682.47;;;23.85;53.95
79006;BME280;69202;45.498;-73.582;2023-08-21T01:20:20;100638.50;;;23.54;53.70
79006;BME280;69202;45.498;-73.582;2023-08-21T01:22:46;100831.22;;;24.75;53.77
79006;BME280;69202;45.498;-73.582;2023-08-21T01:25:12;100628.09;;;23.46;53.74
79006;BME280;69202;45.498;-73.582;2023-08-21T01:27:41;100795.13;;;24.61;53.74
79006;BME280;69202;45.498;-73.582;2023-08-21T01:30:08;100646.72;;;23.65;53.65
79006;BME280;69202;45.498;-73.582;2023-08-21T01:35:05;100777.59;;;24.42;54.18
79006;BME280;69202;45.498;-73.582;2023-08-21T01:37:32;100743.13;;;23.95;54.71
79006;BME280;69202;45.498;-73.582;2023-08-21T01:39:59;100849.97;;;24.78;54.39
79006;BME280;69202;45.498;-73.582;2023-08-21T01:42:25;100710.88;;;23.90;54.42
79006;BME280;69202;45.498;-73.582;2023-08-21T01:44:51;100796.38;;;24.45;54.83
79006;BME280;69202;45.498;-73.582;2023-08-21T01:47:17;100724.84;;;24.04;54.63
79006;BME280;69202;45.498;-73.582;2023-08-21T01:49:43;100814.31;;;24.47;54.73
79006;BME280;69202;45.498;-73.582;2023-08-21T01:52:09;100877.69;;;24.73;54.98
79006;BME280;69202;45.498;-73.582;2023-08-21T01:54:35;100723.97;;;23.75;54.47
79006;BME280;69202;45.498;-73.582;2023-08-21T01:57:01;100822.72;;;24.27;53.11
79006;BME280;69202;45.498;-73.582;2023-08-21T01:59:28;100733.34;;;23.79;54.29
79006;BME280;69202;45.498;-73.582;2023-08-21T02:01:54;100847.75;;;24.51;53.73
79006;BME280;69202;45.498;-73.582;2023-08-21T02:04:20;100845.59;;;24.43;54.32
79006;BME280;69202;45.498;-73.582;2023-08-21T02:06:45;100763.50;;;24.04;54.54
79006;BME280;69202;45.498;-73.582;2023-08-21T02:09:11;100770.59;;;24.21;54.21
79006;BME280;69202;45.498;-73.582;2023-08-21T02:11:37;100795.66;;;24.29;54.02
79006;BME280;69202;45.498;-73.582;2023-08-21T02:14:03;100709.38;;;23.69;54.56
79006;BME280;69202;45.498;-73.582;2023-08-21T02:16:30;100713.13;;;23.83;54.42
79006;BME280;69202;45.498;-73.582;2023-08-21T02:18:55;100771.69;;;24.19;54.39
79006;BME280;69202;45.498;-73.582;2023-08-21T02:21:22;100629.88;;;23.27;54.68
79006;BME280;69202;45.498;-73.582;2023-08-21T02:23:48;100819.44;;;24.59;54.32
79006;BME280;69202;45.498;-73.582;2023-08-21T02:26:14;100704.59;;;23.80;55.23
79006;BME280;69202;45.498;-73.582;2023-08-21T02:28:40;100583.63;;;23.14;55.43
79006;BME280;69202;45.498;-73.582;2023-08-21T02:31:11;100703.94;;;23.93;55.63
79006;BME280;69202;45.498;-73.582;2023-08-21T02:33:38;100549.56;;;22.89;55.37
79006;BME280;69202;45.498;-73.582;2023-08-21T02:36:04;100555.59;;;22.96;55.41
79006;BME280;69202;45.498;-73.582;2023-08-21T02:38:30;100733.88;;;23.76;55.23
79006;BME280;69202;45.498;-73.582;2023-08-21T02:40:56;100697.16;;;23.80;56.36
79006;BME280;69202;45.498;-73.582;2023-08-21T02:43:22;100642.72;;;23.42;56.22
79006;BME280;69202;45.498;-73.582;2023-08-21T02:45:48;100689.72;;;23.76;55.64
79006;BME280;69202;45.498;-73.582;2023-08-21T02:48:14;100756.56;;;24.12;55.39
79006;BME280;69202;45.498;-73.582;2023-08-21T02:50:40;100822.28;;;24.54;56.54
79006;BME280;69202;45.498;-73.582;2023-08-21T02:53:07;100615.75;;;23.33;56.20
79006;BME280;69202;45.498;-73.582;2023-08-21T02:55:33;100688.63;;;23.77;56.02
79006;BME280;69202;45.498;-73.582;2023-08-21T02:57:59;100816.97;;;24.58;56.86
79006;BME280;69202;45.498;-73.582;2023-08-21T03:00:25;100812.00;;;24.60;56.12
79006;BME280;69202;45.498;-73.582;2023-08-21T03:02:51;100720.28;;;23.89;56.67
79006;BME280;69202;45.498;-73.582;2023-08-21T03:05:17;100547.72;;;22.74;56.67
79006;BME280;69202;45.498;-73.582;2023-08-21T03:07:43;100747.97;;;23.79;57.05
79006;BME280;69202;45.498;-73.582;2023-08-21T03:10:09;100782.66;;;24.30;57.19
79006;BME280;69202;45.498;-73.582;2023-08-21T03:12:35;100835.66;;;24.42;55.31
79006;BME280;69202;45.498;-73.582;2023-08-21T03:15:02;100718.81;;;23.53;55.28
79006;BME280;69202;45.498;-73.582;2023-08-21T03:17:28;100759.16;;;23.98;56.32
79006;BME280;69202;45.498;-73.582;2023-08-21T03:19:54;100779.47;;;24.12;55.73
79006;BME280;69202;45.498;-73.582;2023-08-21T03:22:20;100756.66;;;23.97;54.70
79006;BME280;69202;45.498;-73.582;2023-08-21T03:24:46;100817.75;;;24.34;55.15
79006;BME280;69202;45.498;-73.582;2023-08-21T03:27:13;100833.19;;;24.40;57.03
79006;BME280;69202;45.498;-73.582;2023-08-21T03:29:39;100788.88;;;24.11;57.29
79006;BME280;69202;45.498;-73.582;2023-08-21T03:32:05;100671.50;;;23.30;55.35
79006;BME280;69202;45.498;-73.582;2023-08-21T03:34:31;100837.38;;;24.33;55.90
79006;BME280;69202;45.498;-73.582;2023-08-21T03:36:57;100834.63;;;24.33;56.15
79006;BME280;69202;45.498;-73.582;2023-08-21T03:39:23;100810.03;;;24.26;56.69
79006;BME280;69202;45.498;-73.582;2023-08-21T03:41:49;100752.31;;;23.85;56.71
79006;BME280;69202;45.498;-73.582;2023-08-21T03:44:15;100839.00;;;24.39;55.93
79006;BME280;69202;45.498;-73.582;2023-08-21T03:46:41;100757.84;;;23.85;57.00
79006;BME280;69202;45.498;-73.582;2023-08-21T03:49:07;100600.03;;;22.90;57.35
79006;BME280;69202;45.498;-73.582;2023-08-21T03:51:33;100664.25;;;23.45;57.91
79006;BME280;69202;45.498;-73.582;2023-08-21T03:53:59;100726.66;;;23.85;56.55
79006;BME280;69202;45.498;-73.582;2023-08-21T03:56:25;100725.81;;;23.84;57.02
79006;BME280;69202;45.498;-73.582;2023-08-21T03:58:50;100578.25;;;22.88;56.09
79006;BME280;69202;45.498;-73.582;2023-08-21T04:01:16;100821.56;;;24.38;56.62
79006;BME280;69202;45.498;-73.582;2023-08-21T04:03:42;100719.94;;;23.57;57.26
79006;BME280;69202;45.498;-73.582;2023-08-21T04:06:08;100826.66;;;24.21;57.82
79006;BME280;69202;45.498;-73.582;2023-08-21T04:08:34;100623.78;;;22.86;58.13
79006;BME280;69202;45.498;-73.582;2023-08-21T04:11:01;100847.06;;;24.30;54.95
79006;BME280;69202;45.498;-73.582;2023-08-21T04:13:27;100716.06;;;23.58;56.87
79006;BME280;69202;45.498;-73.582;2023-08-21T04:15:54;100681.97;;;23.33;55.47
79006;BME280;69202;45.498;-73.582;2023-08-21T04:18:20;100686.16;;;23.26;55.31
79006;BME280;69202;45.498;-73.582;2023-08-21T04:20:48;100829.44;;;24.16;56.45
79006;BME280;69202;45.498;-73.582;2023-08-21T04:23:14;100786.56;;;23.89;56.57
79006;BME280;69202;45.498;-73.582;2023-08-21T04:25:40;100840.69;;;24.30;58.02
79006;BME280;69202;45.498;-73.582;2023-08-21T04:28:05;100531.00;;;22.56;57.06
79006;BME280;69202;45.498;-73.582;2023-08-21T04:30:33;100496.16;;;22.26;55.51
79006;BME280;69202;45.498;-73.582;2023-08-21T04:33:00;100802.69;;;24.11;55.61
79006;BME280;69202;45.498;-73.582;2023-08-21T04:35:26;100832.91;;;24.37;57.13
79006;BME280;69202;45.498;-73.582;2023-08-21T04:37:52;100772.47;;;23.91;58.07
79006;BME280;69202;45.498;-73.582;2023-08-21T04:40:17;100766.63;;;23.98;57.19
79006;BME280;69202;45.498;-73.582;2023-08-21T04:42:46;100694.63;;;23.40;57.38
79006;BME280;69202;45.498;-73.582;2023-08-21T04:45:13;100761.13;;;23.93;57.69
79006;BME280;69202;45.498;-73.582;2023-08-21T04:47:39;100677.59;;;23.27;57.21
79006;BME280;69202;45.498;-73.582;2023-08-21T04:50:05;100725.34;;;23.77;58.01
79006;BME280;69202;45.498;-73.582;2023-08-21T04:52:31;100633.03;;;23.05;57.65
79006;BME280;69202;45.498;-73.582;2023-08-21T04:54:57;100711.38;;;23.53;56.49
79006;BME280;69202;45.498;-73.582;2023-08-21T04:57:23;100523.34;;;22.42;56.94
79006;BME280;69202;45.498;-73.582;2023-08-21T04:59:49;100774.97;;;23.87;57.77
79006;BME280;69202;45.498;-73.582;2023-08-21T05:02:15;100617.84;;;23.08;56.85
79006;BME280;69202;45.498;-73.582;2023-08-21T05:04:40;100598.16;;;22.75;57.79
79006;BME280;69202;45.498;-73.582;2023-08-21T05:07:06;100814.00;;;24.15;58.94
79006;BME280;69202;45.498;-73.582;2023-08-21T05:09:32;100524.72;;;22.45;57.96
79006;BME280;69202;45.498;-73.582;2023-08-21T05:11:58;100816.38;;;24.27;57.34
79006;BME280;69202;45.498;-73.582;2023-08-21T05:14:24;100815.56;;;24.26;58.58
79006;BME280;69202;45.498;-73.582;2023-08-21T05:16:50;100738.88;;;23.74;58.90
79006;BME280;69202;45.498;-73.582;2023-08-21T05:19:17;100635.75;;;23.10;58.83
79006;BME280;69202;45.498;-73.582;2023-08-21T05:21:44;100706.41;;;23.60;59.20
79006;BME280;69202;45.498;-73.582;2023-08-21T05:24:10;100784.25;;;24.02;58.00
79006;BME280;69202;45.498;-73.582;2023-08-21T05:26:37;100819.56;;;24.10;57.08
79006;BME280;69202;45.498;-73.582;2023-08-21T05:29:03;100829.66;;;23.85;56.93
79006;BME280;69202;45.498;-73.582;2023-08-21T05:31:29;100825.50;;;23.88;58.57
79006;BME280;69202;45.498;-73.582;2023-08-21T05:33:55;100597.13;;;22.56;57.07
79006;BME280;69202;45.498;-73.582;2023-08-21T05:36:21;100677.22;;;22.95;57.22
79006;BME280;69202;45.498;-73.582;2023-08-21T05:38:47;100836.75;;;23.97;58.32
79006;BME280;69202;45.498;-73.582;2023-08-21T05:41:17;100700.25;;;23.19;57.68
79006;BME280;69202;45.498;-73.582;2023-08-21T05:43:43;100789.22;;;23.60;56.84
79006;BME280;69202;45.498;-73.582;2023-08-21T05:46:11;100810.00;;;23.92;58.20
79006;BME280;69202;45.498;-73.582;2023-08-21T05:48:37;100535.81;;;22.19;58.32
79006;BME280;69202;45.498;-73.582;2023-08-21T05:51:03;100673.84;;;23.08;58.44
79006;BME280;69202;45.498;-73.582;2023-08-21T05:53:29;100777.06;;;23.61;58.22
79006;BME280;69202;45.498;-73.582;2023-08-21T05:55:55;100652.94;;;22.92;58.26
79006;BME280;69202;45.498;-73.582;2023-08-21T05:58:21;100819.13;;;23.93;59.97
79006;BME280;69202;45.498;-73.582;2023-08-21T06:00:48;100815.53;;;23.97;58.36
79006;BME280;69202;45.498;-73.582;2023-08-21T06:03:14;100781.69;;;23.76;58.11
79006;BME280;69202;45.498;-73.582;2023-08-21T06:05:40;100670.28;;;23.02;59.72
79006;BME280;69202;45.498;-73.582;2023-08-21T06:08:06;100798.50;;;23.80;60.36
79006;BME280;69202;45.498;-73.582;2023-08-21T06:10:34;100806.78;;;23.80;60.68
79006;BME280;69202;45.498;-73.582;2023-08-21T06:13:00;100831.22;;;24.02;59.74
79006;BME280;69202;45.498;-73.582;2023-08-21T06:15:25;100774.03;;;23.58;58.97
79006;BME280;69202;45.498;-73.582;2023-08-21T06:17:51;100835.09;;;24.01;58.50
79006;BME280;69202;45.498;-73.582;2023-08-21T06:20:17;100711.59;;;23.18;58.03
79006;BME280;69202;45.498;-73.582;2023-08-21T06:22:45;100641.47;;;22.64;59.00
79006;BME280;69202;45.498;-73.582;2023-08-21T06:25:11;100722.63;;;23.18;59.96
79006;BME280;69202;45.498;-73.582;2023-08-21T06:27:38;100714.66;;;23.11;59.96
79006;BME280;69202;45.498;-73.582;2023-08-21T06:30:04;100833.28;;;23.76;60.55
79006;BME280;69202;45.498;-73.582;2023-08-21T06:32:30;100822.25;;;23.76;58.10
79006;BME280;69202;45.498;-73.582;2023-08-21T06:34:56;100737.84;;;23.00;56.52
79006;BME280;69202;45.498;-73.582;2023-08-21T06:37:22;100705.09;;;22.83;60.11
79006;BME280;69202;45.498;-73.582;2023-08-21T06:39:48;100825.16;;;23.45;58.77
79006;BME280;69202;45.498;-73.582;2023-08-21T06:42:13;100692.16;;;22.68;58.97
79006;BME280;69202;45.498;-73.582;2023-08-21T06:44:40;100736.50;;;22.92;58.94
79006;BME280;69202;45.498;-73.582;2023-08-21T06:47:06;100685.28;;;22.66;58.63
79006;BME280;69202;45.498;-73.582;2023-08-21T06:49:31;100816.56;;;23.52;58.88
79006;BME280;69202;45.498;-73.582;2023-08-21T06:51:58;100777.19;;;23.36;60.24
79006;BME280;69202;45.498;-73.582;2023-08-21T06:54:24;100736.22;;;23.04;59.71
79006;BME280;69202;45.498;-73.582;2023-08-21T06:56:50;100772.19;;;23.38;59.04
79006;BME280;69202;45.498;-73.582;2023-08-21T06:59:16;100632.75;;;22.42;59.71
79006;BME280;69202;45.498;-73.582;2023-08-21T07:01:42;100504.88;;;21.58;60.57
79006;BME280;69202;45.498;-73.582;2023-08-21T07:04:08;100787.97;;;23.27;60.46
79006;BME280;69202;45.498;-73.582;2023-08-21T07:06:34;100836.69;;;23.52;60.03
79006;BME280;69202;45.498;-73.582;2023-08-21T07:09:00;100825.66;;;23.57;60.13
79006;BME280;69202;45.498;-73.582;2023-08-21T07:11:26;100749.69;;;23.11;60.35
79006;BME280;69202;45.498;-73.582;2023-08-21T07:13:52;100816.59;;;23.47;58.65
79006;BME280;69202;45.498;-73.582;2023-08-21T07:16:18;100825.69;;;23.42;60.92
79006;BME280;69202;45.498;-73.582;2023-08-21T07:18:44;100841.38;;;23.62;61.27
79006;BME280;69202;45.498;-73.582;2023-08-21T07:21:09;100763.72;;;23.24;60.78
79006;BME280;69202;45.498;-73.582;2023-08-21T07:23:35;100641.50;;;22.54;60.06
79006;BME280;69202;45.498;-73.582;2023-08-21T07:26:01;100627.53;;;22.25;59.36
79006;BME280;69202;45.498;-73.582;2023-08-21T07:28:29;100555.44;;;21.93;60.26
79006;BME280;69202;45.498;-73.582;2023-08-21T07:30:56;100678.19;;;22.39;61.01
79006;BME280;69202;45.498;-73.582;2023-08-21T07:33:22;100701.25;;;22.74;60.21
79006;BME280;69202;45.498;-73.582;2023-08-21T07:36:00;100832.00;;;23.58;59.70
79006;BME280;69202;45.498;-73.582;2023-08-21T07:38:26;100750.53;;;23.06;59.16
79006;BME280;69202;45.498;-73.582;2023-08-21T07:41:02;100859.28;;;23.70;59.26
79006;BME280;69202;45.498;-73.582;2023-08-21T07:43:28;100849.13;;;23.60;60.83
79006;BME280;69202;45.498;-73.582;2023-08-21T07:45:54;100854.06;;;23.68;61.48
79006;BME280;69202;45.498;-73.582;2023-08-21T07:48:20;100614.63;;;22.15;60.54
79006;BME280;69202;45.498;-73.582;2023-08-21T07:50:52;100838.91;;;23.60;58.80
79006;BME280;69202;45.498;-73.582;2023-08-21T07:53:19;100784.34;;;23.32;58.47
79006;BME280;69202;45.498;-73.582;2023-08-21T07:55:45;100599.75;;;22.22;58.44
79006;BME280;69202;45.498;-73.582;2023-08-21T07:58:11;100615.16;;;22.23;58.36
79006;BME280;69202;45.498;-73.582;2023-08-21T08:00:38;100761.78;;;23.25;59.16
79006;BME280;69202;45.498;-73.582;2023-08-21T08:03:05;100612.94;;;22.25;59.34
79006;BME280;69202;45.498;-73.582;2023-08-21T08:05:31;100773.34;;;23.27;60.61
79006;BME280;69202;45.498;-73.582;2023-08-21T08:07:57;100681.19;;;22.63;60.95
79006;BME280;69202;45.498;-73.582;2023-08-21T08:10:26;100765.13;;;23.17;60.95
79006;BME280;69202;45.498;-73.582;2023-08-21T08:12:52;100890.44;;;23.75;62.81
79006;BME280;69202;45.498;-73.582;2023-08-21T08:15:19;100791.25;;;23.29;62.28
79006;BME280;69202;45.498;-73.582;2023-08-21T08:17:45;100868.16;;;23.56;61.58
79006;BME280;69202;45.498;-73.582;2023-08-21T08:20:12;100869.81;;;23.68;61.49
79006;BME280;69202;45.498;-73.582;2023-08-21T08:22:39;100690.59;;;22.52;60.91
79006;BME280;69202;45.498;-73.582;2023-08-21T08:25:05;100872.56;;;23.57;60.34
79006;BME280;69202;45.498;-73.582;2023-08-21T08:27:34;100685.91;;;22.42;61.93
79006;BME280;69202;45.498;-73.582;2023-08-21T08:30:00;100853.03;;;23.39;62.36
79006;BME280;69202;45.498;-73.582;2023-08-21T08:32:26;100910.16;;;23.58;60.95
79006;BME280;69202;45.498;-73.582;2023-08-21T08:34:53;100738.78;;;22.50;63.87
79006;BME280;69202;45.498;-73.582;2023-08-21T08:37:19;100612.16;;;21.63;63.74
79006;BME280;69202;45.498;-73.582;2023-08-21T08:39:49;100570.06;;;21.42;63.10
79006;BME280;69202;45.498;-73.582;2023-08-21T08:42:15;100768.56;;;22.63;62.98
79006;BME280;69202;45.498;-73.582;2023-08-21T08:44:43;100563.75;;;21.42;63.24
79006;BME280;69202;45.498;-73.582;2023-08-21T08:47:10;100898.00;;;23.59;60.92
79006;BME280;69202;45.498;-73.582;2023-08-21T08:49:39;100889.13;;;23.52;63.48
79006;BME280;69202;45.498;-73.582;2023-08-21T08:52:05;100829.19;;;22.88;61.61
79006;BME280;69202;45.498;-73.582;2023-08-21T08:54:32;100726.94;;;22.54;62.74
79006;BME280;69202;45.498;-73.582;2023-08-21T08:56:58;100930.25;;;23.69;64.25
79006;BME280;69202;45.498;-73.582;2023-08-21T08:59:24;100732.44;;;22.59;63.91
79006;BME280;69202;45.498;-73.582;2023-08-21T09:01:51;100916.19;;;23.50;60.91
79006;BME280;69202;45.498;-73.582;2023-08-21T09:04:17;100799.94;;;22.77;59.09
79006;BME280;69202;45.498;-73.582;2023-08-21T09:06:43;100912.94;;;23.38;59.34
79006;BME280;69202;45.498;-73.582;2023-08-21T09:09:09;100851.25;;;22.93;62.86
79006;BME280;69202;45.498;-73.582;2023-08-21T09:11:43;100702.44;;;21.97;63.92
79006;BME280;69202;45.498;-73.582;2023-08-21T09:14:10;100575.25;;;21.23;65.07
79006;BME280;69202;45.498;-73.582;2023-08-21T09:16:37;100934.69;;;23.60;61.71
79006;BME280;69202;45.498;-73.582;2023-08-21T09:19:03;100741.56;;;22.29;63.07
79006;BME280;69202;45.498;-73.582;2023-08-21T09:21:29;100826.94;;;22.80;61.28
79006;BME280;69202;45.498;-73.582;2023-08-21T09:24:00;100942.69;;;23.51;65.28
79006;BME280;69202;45.498;-73.582;2023-08-21T09:26:26;100886.50;;;23.17;64.25
79006;BME280;69202;45.498;-73.582;2023-08-21T09:28:53;100949.88;;;23.57;64.36
79006;BME280;69202;45.498;-73.582;2023-08-21T09:31:23;100932.50;;;23.47;65.86
79006;BME280;69202;45.498;-73.582;2023-08-21T09:33:57;100955.97;;;23.49;65.36
79006;BME280;69202;45.498;-73.582;2023-08-21T09:36:23;100914.59;;;23.29;64.81
79006;BME280;69202;45.498;-73.582;2023-08-21T09:38:51;100967.78;;;23.55;65.31
79006;BME280;69202;45.498;-73.582;2023-08-21T09:41:21;100963.41;;;23.49;62.23
79006;BME280;69202;45.498;-73.582;2023-08-21T09:43:48;100811.56;;;22.43;65.01
79006;BME280;69202;45.498;-73.582;2023-08-21T09:46:15;100929.78;;;23.21;66.25
79006;BME280;69202;45.498;-73.582;2023-08-21T09:48:45;100976.94;;;23.50;66.60
79006;BME280;69202;45.498;-73.582;2023-08-21T09:51:12;100975.56;;;23.48;67.18
79006;BME280;69202;45.498;-73.582;2023-08-21T09:53:38;100954.09;;;23.24;66.71
79006;BME280;69202;45.498;-73.582;2023-08-21T09:56:07;101002.34;;;23.47;65.67
79006;BME280;69202;45.498;-73.582;2023-08-21T09:58:35;100993.22;;;23.42;67.30
79006;BME280;69202;45.498;-73.582;2023-08-21T10:01:05;100947.75;;;22.98;67.34
79006;BME280;69202;45.498;-73.582;2023-08-21T10:03:40;101002.91;;;23.29;66.15
79006;BME280;69202;45.498;-73.582;2023-08-21T10:06:08;100922.63;;;22.69;66.57
79006;BME280;69202;45.498;-73.582;2023-08-21T10:08:39;101015.88;;;23.28;66.86
79006;BME280;69202;45.498;-73.582;2023-08-21T10:11:08;100943.06;;;22.94;66.91
79006;BME280;69202;45.498;-73.582;2023-08-21T10:13:38;100832.22;;;22.10;65.48
79006;BME280;69202;45.498;-73.582;2023-08-21T10:16:05;100991.03;;;22.98;66.47
79006;BME280;69202;45.498;-73.582;2023-08-21T10:18:34;100763.81;;;21.61;65.80
79006;BME280;69202;45.498;-73.582;2023-08-21T10:21:14;100989.88;;;22.58;65.34
79006;BME280;69202;45.498;-73.582;2023-08-21T10:23:41;100994.28;;;22.64;65.98
79006;BME280;69202;45.498;-73.582;2023-08-21T10:26:09;101036.81;;;22.89;65.09
79006;BME280;69202;45.498;-73.582;2023-08-21T10:31:34;101058.59;;;22.85;64.61
79006;BME280;69202;45.498;-73.582;2023-08-21T10:34:11;101040.03;;;22.60;64.16
79006;BME280;69202;45.498;-73.582;2023-08-21T10:39:14;100866.91;;;21.44;62.84
79006;BME280;69202;45.498;-73.582;2023-08-21T10:41:40;101046.06;;;22.47;62.14
79006;BME280;69202;45.498;-73.582;2023-08-21T10:44:07;101048.22;;;22.35;61.69
79006;BME280;69202;45.498;-73.582;2023-08-21T10:46:54;101097.03;;;22.50;61.85
79006;BME280;69202;45.498;-73.582;2023-08-21T10:49:38;101046.19;;;22.10;61.26
79006;BME280;69202;45.498;-73.582;2023-08-21T10:52:04;101065.16;;;22.06;60.72
79006;BME280;69202;45.498;-73.582;2023-08-21T10:54:43;101108.50;;;22.21;60.85
79006;BME280;69202;45.498;-73.582;2023-08-21T10:57:09;101097.59;;;21.99;60.03
79006;BME280;69202;45.498;-73.582;2023-08-21T10:59:35;101109.28;;;22.16;60.38
79006;BME280;69202;45.498;-73.582;2023-08-21T11:02:01;101032.44;;;21.68;59.63
79006;BME280;69202;45.498;-73.582;2023-08-21T11:04:28;101018.34;;;21.59;59.17
79006;BME280;69202;45.498;-73.582;2023-08-21T11:06:54;101100.47;;;22.14;58.55
79006;BME280;69202;45.498;-73.582;2023-08-21T11:09:22;101133.84;;;22.23;58.04
79006;BME280;69202;45.498;-73.582;2023-08-21T11:11:48;101154.78;;;22.24;56.90
79006;BME280;69202;45.498;-73.582;2023-08-21T11:14:14;101144.97;;;22.01;56.78
79006;BME280;69202;45.498;-73.582;2023-08-21T11:16:40;101136.84;;;21.79;56.32
79006;BME280;69202;45.498;-73.582;2023-08-21T11:19:07;100792.50;;;19.80;56.65
79006;BME280;69202;45.498;-73.582;2023-08-21T11:21:33;101059.19;;;21.40;56.51
79006;BME280;69202;45.498;-73.582;2023-08-21T11:23:59;100878.47;;;20.39;55.46
79006;BME280;69202;45.498;-73.582;2023-08-21T11:26:25;101110.38;;;22.15;53.98
79006;BME280;69202;45.498;-73.582;2023-08-21T11:28:51;101030.50;;;21.31;52.80
79006;BME280;69202;45.498;-73.582;2023-08-21T11:31:17;101061.53;;;21.58;51.68
79006;BME280;69202;45.498;-73.582;2023-08-21T11:33:50;100916.53;;;20.53;49.74
79006;BME280;69202;45.498;-73.582;2023-08-21T11:36:16;101059.38;;;21.28;50.45
79006;BME280;69202;45.498;-73.582;2023-08-21T11:38:58;100879.84;;;19.83;49.98
79006;BME280;69202;45.498;-73.582;2023-08-21T11:41:25;101223.88;;;21.85;51.47
79006;BME280;69202;45.498;-73.582;2023-08-21T11:43:51;101186.63;;;21.46;51.65
79006;BME280;69202;45.498;-73.582;2023-08-21T11:46:18;101199.66;;;21.55;50.15
79006;BME280;69202;45.498;-73.582;2023-08-21T11:48:44;101184.13;;;21.44;50.53
79006;BME280;69202;45.498;-73.582;2023-08-21T11:51:10;101232.47;;;21.62;50.55
79006;BME280;69202;45.498;-73.582;2023-08-21T11:53:38;101003.44;;;20.37;50.01
79006;BME280;69202;45.498;-73.582;2023-08-21T11:56:13;101116.19;;;21.18;49.44
79006;BME280;69202;45.498;-73.582;2023-08-21T11:58:40;101112.13;;;20.98;48.77
79006;BME280;69202;45.498;-73.582;2023-08-21T12:01:06;101116.78;;;21.25;48.81
79006;BME280;69202;45.498;-73.582;2023-08-21T12:03:39;101201.72;;;21.70;48.77
79006;BME280;69202;45.498;-73.582;2023-08-21T12:06:09;100995.25;;;20.20;51.38
79006;BME280;69202;45.498;-73.582;2023-08-21T12:08:35;101188.38;;;21.57;49.52
79006;BME280;69202;45.498;-73.582;2023-08-21T12:11:02;101106.34;;;20.95;50.79
79006;BME280;69202;45.498;-73.582;2023-08-21T12:13:28;101174.78;;;21.45;49.47
79006;BME280;69202;45.498;-73.582;2023-08-21T12:15:54;101084.34;;;20.73;51.10
79006;BME280;69202;45.498;-73.582;2023-08-21T12:18:20;100997.31;;;20.08;50.76
79006;BME280;69202;45.498;-73.582;2023-08-21T12:20:45;101261.66;;;21.63;50.91
79006;BME280;69202;45.498;-73.582;2023-08-21T12:23:11;101160.69;;;21.15;51.25
79006;BME280;69202;45.498;-73.582;2023-08-21T12:25:37;101169.00;;;21.20;50.39
79006;BME280;69202;45.498;-73.582;2023-08-21T12:28:04;101225.00;;;21.57;50.14
79006;BME280;69202;45.498;-73.582;2023-08-21T12:30:30;101025.16;;;20.38;50.31
79006;BME280;69202;45.498;-73.582;2023-08-21T12:32:56;101224.91;;;21.47;49.85
79006;BME280;69202;45.498;-73.582;2023-08-21T12:35:23;101216.41;;;21.54;49.39
79006;BME280;69202;45.498;-73.582;2023-08-21T12:37:48;101015.38;;;20.26;49.08